createdAt,value
2023-05-07T00:01:58.248Z,66.58
2023-05-07T00:05:25.859Z,66.47
2023-05-07T00:08:52.735Z,66.20
2023-05-07T00:12:19.642Z,65.97
2023-05-07T00:15:47.150Z,66.16
2023-05-07T00:19:15.458Z,66.37
2023-05-07T00:22:42.565Z,66.02
2023-05-07T00:26:09.445Z,66.15
2023-05-07T00:29:36.222Z,66.45
2023-05-07T00:33:03.673Z,66.49
2023-05-07T00:36:31.678Z,66.39
2023-05-07T00:39:59.026Z,66.39
2023-05-07T00:43:26.313Z,66.47
2023-05-07T00:46:53.588Z,66.63
2023-05-07T00:50:26.958Z,66.54
2023-05-07T00:53:54.222Z,66.53
2023-05-07T00:57:21.646Z,66.45
2023-05-07T01:00:48.730Z,66.37
2023-05-07T01:04:16.528Z,66.29
2023-05-07T01:07:44.968Z,66.24
2023-05-07T01:11:13.355Z,66.09
2023-05-07T01:14:40.631Z,66.00
2023-05-07T01:18:08.332Z,66.20
2023-05-07T01:21:40.215Z,66.14
2023-05-07T01:25:10.310Z,65.96
2023-05-07T01:28:40.421Z,66.03
2023-05-07T01:32:09.688Z,66.27
2023-05-07T01:35:43.166Z,66.46
2023-05-07T01:39:11.979Z,66.36
2023-05-07T01:42:38.780Z,66.26
2023-05-07T01:46:06.494Z,66.23
2023-05-07T01:49:33.200Z,66.46
2023-05-07T01:53:00.970Z,66.41
2023-05-07T01:56:29.371Z,66.26
2023-05-07T01:59:56.606Z,66.53
2023-05-07T02:03:24.263Z,66.77
2023-05-07T02:06:56.984Z,66.95
2023-05-07T02:10:24.786Z,66.54
2023-05-07T02:13:51.668Z,66.49
2023-05-07T02:17:18.430Z,66.30
2023-05-07T02:20:45.887Z,66.57
2023-05-07T02:24:12.438Z,66.17
2023-05-07T02:27:39.246Z,66.36
2023-05-07T02:31:07.462Z,66.43
2023-05-07T02:34:34.447Z,66.24
2023-05-07T02:38:04.067Z,66.56
2023-05-07T02:41:31.706Z,66.35
2023-05-07T02:44:59.162Z,66.42
2023-05-07T02:48:26.886Z,66.46
2023-05-07T02:51:53.853Z,66.55
2023-05-07T02:55:22.901Z,66.44
2023-05-07T02:58:50.201Z,66.66
2023-05-07T03:02:18.213Z,66.57
2023-05-07T03:05:45.487Z,66.41
2023-05-07T03:09:12.476Z,66.50
2023-05-07T03:12:39.091Z,66.71
2023-05-07T03:16:06.823Z,66.76
2023-05-07T03:19:34.115Z,66.70
2023-05-07T03:23:01.973Z,66.46
2023-05-07T03:26:28.875Z,66.59
2023-05-07T03:29:56.048Z,66.82
2023-05-07T03:33:23.095Z,66.53
2023-05-07T03:36:50.049Z,66.53
2023-05-07T03:40:18.933Z,66.34
2023-05-07T03:43:48.704Z,66.54
2023-05-07T03:47:16.418Z,66.52
2023-05-07T03:50:43.901Z,66.91
2023-05-07T03:54:10.797Z,67.02
2023-05-07T03:57:38.348Z,67.07
2023-05-07T04:01:05.741Z,67.25
2023-05-07T04:04:34.140Z,67.52
2023-05-07T04:08:02.140Z,67.52
2023-05-07T04:11:33.599Z,67.61
2023-05-07T04:15:00.253Z,67.99
2023-05-07T04:18:26.890Z,67.88
2023-05-07T04:21:54.108Z,67.87
2023-05-07T04:25:20.798Z,67.98
2023-05-07T04:28:47.967Z,68.17
2023-05-07T04:32:15.910Z,68.33
2023-05-07T04:35:42.918Z,68.40
2023-05-07T04:39:10.120Z,68.27
2023-05-07T04:42:37.798Z,68.49
2023-05-07T04:46:05.005Z,68.41
2023-05-07T04:49:32.083Z,68.28
2023-05-07T04:52:59.182Z,68.46
2023-05-07T04:56:26.065Z,68.53
2023-05-07T04:59:57.383Z,68.37
2023-05-07T05:03:24.604Z,68.41
2023-05-07T05:06:51.296Z,68.40
2023-05-07T05:10:18.759Z,68.46
2023-05-07T05:13:45.922Z,68.48
2023-05-07T05:17:16.866Z,68.53
2023-05-07T05:20:43.912Z,68.63
2023-05-07T05:24:12.896Z,68.75
2023-05-07T05:27:39.884Z,68.74
2023-05-07T05:31:07.088Z,68.81
2023-05-07T05:34:37.067Z,68.84
2023-05-07T05:38:05.539Z,68.95
2023-05-07T05:41:34.063Z,68.92
2023-05-07T05:45:01.734Z,68.62
2023-05-07T05:48:29.173Z,68.65
2023-05-07T05:51:57.141Z,68.56
2023-05-07T05:55:25.970Z,68.52
2023-05-07T05:58:53.405Z,68.23
2023-05-07T06:02:20.409Z,68.39
2023-05-07T06:05:47.905Z,68.20
2023-05-07T06:09:16.138Z,67.95
2023-05-07T06:12:45.764Z,67.96
2023-05-07T06:16:13.406Z,68.04
2023-05-07T06:19:40.869Z,68.11
2023-05-07T06:23:07.718Z,67.84
2023-05-07T06:26:35.101Z,67.75
2023-05-07T06:30:05.753Z,68.03
2023-05-07T06:33:33.706Z,67.99
2023-05-07T06:37:01.821Z,67.92
2023-05-07T06:40:42.691Z,67.71
2023-05-07T06:44:10.200Z,67.78
2023-05-07T06:47:42.336Z,68.04
2023-05-07T06:51:10.881Z,67.72
2023-05-07T06:54:38.597Z,67.61
2023-05-07T06:58:17.623Z,67.36
2023-05-07T07:01:45.597Z,67.29
2023-05-07T07:05:13.871Z,66.97
2023-05-07T07:08:50.286Z,66.70
2023-05-07T07:12:19.721Z,66.46
2023-05-07T07:15:47.568Z,66.33
2023-05-07T07:19:16.448Z,66.60
2023-05-07T07:22:43.800Z,66.44
2023-05-07T07:26:10.876Z,66.29
2023-05-07T07:29:37.702Z,66.28
2023-05-07T07:33:05.695Z,66.06
2023-05-07T07:36:45.731Z,65.69
2023-05-07T07:40:17.480Z,65.53
2023-05-07T07:43:45.469Z,65.56
2023-05-07T07:47:12.621Z,65.56
2023-05-07T07:50:45.379Z,65.39
2023-05-07T07:54:16.004Z,65.33
2023-05-07T07:57:44.837Z,65.27
2023-05-07T08:01:13.522Z,65.10
2023-05-07T08:04:49.649Z,64.98
2023-05-07T08:08:18.820Z,64.75
2023-05-07T08:11:47.862Z,64.84
2023-05-07T08:15:16.030Z,64.83
2023-05-07T08:18:43.552Z,64.43
2023-05-07T08:22:10.255Z,64.09
2023-05-07T08:25:38.740Z,63.95
2023-05-07T08:29:06.253Z,63.73
2023-05-07T08:32:36.933Z,63.36
2023-05-07T08:36:07.153Z,63.19
2023-05-07T08:39:35.805Z,63.26
2023-05-07T08:43:04.681Z,62.92
2023-05-07T08:46:35.363Z,62.63
2023-05-07T08:50:03.480Z,62.14
2023-05-07T08:53:30.234Z,62.13
2023-05-07T08:56:58.444Z,61.88
2023-05-07T09:00:26.546Z,61.80
2023-05-07T09:03:58.016Z,61.90
2023-05-07T09:07:27.483Z,61.66
2023-05-07T09:10:54.824Z,61.33
2023-05-07T09:14:27.292Z,61.01
2023-05-07T09:18:03.750Z,60.86
2023-05-07T09:21:32.951Z,60.70
2023-05-07T09:25:00.225Z,60.59
2023-05-07T09:28:29.197Z,60.29
2023-05-07T09:31:55.985Z,60.38
2023-05-07T09:35:25.552Z,60.13
2023-05-07T09:38:57.922Z,60.01
2023-05-07T09:42:28.810Z,59.82
2023-05-07T09:46:01.560Z,59.38
2023-05-07T09:49:32.098Z,59.35
2023-05-07T09:53:06.190Z,59.11
2023-05-07T09:56:34.662Z,59.22
2023-05-07T10:00:05.457Z,59.23
2023-05-07T10:03:40.272Z,58.90
2023-05-07T10:07:08.160Z,58.62
2023-05-07T10:10:37.660Z,58.32
2023-05-07T10:14:07.133Z,58.53
2023-05-07T10:17:37.884Z,58.42
2023-05-07T10:21:10.500Z,58.09
2023-05-07T10:24:39.375Z,57.90
2023-05-07T10:28:11.132Z,57.43
2023-05-07T10:31:57.832Z,57.28
2023-05-07T10:35:29.846Z,56.95
2023-05-07T10:38:59.749Z,56.55
2023-05-07T10:42:30.644Z,56.18
2023-05-07T10:46:20.336Z,55.85
2023-05-07T10:50:26.234Z,55.42
2023-05-07T10:54:24.357Z,55.23
2023-05-07T10:57:57.415Z,55.13
2023-05-07T11:01:55.675Z,55.05
2023-05-07T11:05:37.551Z,54.97
2023-05-07T11:09:16.091Z,54.73
2023-05-07T11:12:59.486Z,54.51
2023-05-07T11:16:38.189Z,54.04
2023-05-07T11:20:49.310Z,53.84
2023-05-07T11:24:25.812Z,53.57
2023-05-07T11:28:06.722Z,53.11
2023-05-07T11:31:42.002Z,52.78
2023-05-07T11:35:11.771Z,52.60
2023-05-07T11:38:41.406Z,52.68
2023-05-07T11:42:27.486Z,52.55
2023-05-07T11:45:55.207Z,52.08
2023-05-07T11:49:28.241Z,52.12
2023-05-07T11:52:57.997Z,52.03
2023-05-07T11:56:25.463Z,51.53
2023-05-07T11:59:55.485Z,51.31
2023-05-07T12:03:23.519Z,51.05
2023-05-07T12:06:52.208Z,50.87
2023-05-07T12:10:21.079Z,50.81
2023-05-07T12:13:49.410Z,50.44
2023-05-07T12:17:19.439Z,50.52
2023-05-07T12:20:47.513Z,50.05
2023-05-07T12:24:14.522Z,49.78
2023-05-07T12:27:43.257Z,49.53
2023-05-07T12:31:10.722Z,49.06
2023-05-07T12:34:38.331Z,48.73
2023-05-07T12:38:10.288Z,48.50
2023-05-07T12:41:54.756Z,48.19
2023-05-07T12:45:23.605Z,48.21
2023-05-07T12:48:51.362Z,47.95
2023-05-07T12:52:24.599Z,47.70
2023-05-07T12:55:55.443Z,47.34
2023-05-07T12:59:24.782Z,46.83
2023-05-07T13:02:52.208Z,46.86
2023-05-07T13:06:19.948Z,46.77
2023-05-07T13:09:49.259Z,46.13
2023-05-07T13:13:19.069Z,46.01
2023-05-07T13:16:46.879Z,46.07
2023-05-07T13:20:18.727Z,45.48
2023-05-07T13:23:52.519Z,45.32
2023-05-07T13:27:23.665Z,44.96
2023-05-07T13:30:53.294Z,44.92
2023-05-07T13:34:23.977Z,44.86
2023-05-07T13:37:53.480Z,44.94
2023-05-07T13:41:22.207Z,44.18
2023-05-07T13:44:52.155Z,44.29
2023-05-07T13:48:20.214Z,44.36
2023-05-07T13:51:50.599Z,44.01
2023-05-07T13:55:20.705Z,43.57
2023-05-07T13:58:59.536Z,43.14
2023-05-07T14:02:30.446Z,43.12
2023-05-07T14:05:59.651Z,43.03
2023-05-07T14:09:28.250Z,42.64
2023-05-07T14:12:56.813Z,42.59
2023-05-07T14:16:24.138Z,42.44
2023-05-07T14:19:51.220Z,42.14
2023-05-07T14:23:21.623Z,42.18
2023-05-07T14:26:49.514Z,41.88
2023-05-07T14:30:24.728Z,41.48
2023-05-07T14:33:55.479Z,41.32
2023-05-07T14:37:22.729Z,40.77
2023-05-07T14:40:51.913Z,40.52
2023-05-07T14:44:19.835Z,40.37
2023-05-07T14:47:48.257Z,40.03
2023-05-07T14:51:16.829Z,40.02
2023-05-07T14:54:44.448Z,40.09
2023-05-07T14:58:13.439Z,39.66
2023-05-07T15:01:46.897Z,39.42
2023-05-07T15:05:13.760Z,39.31
2023-05-07T15:08:41.252Z,39.20
2023-05-07T15:12:17.254Z,38.95
2023-05-07T15:15:44.697Z,38.41
2023-05-07T15:19:12.393Z,38.32
2023-05-07T15:22:41.190Z,37.86
2023-05-07T15:26:10.438Z,37.82
2023-05-07T15:29:39.220Z,37.64
2023-05-07T15:33:07.309Z,37.83
2023-05-07T15:36:34.311Z,37.70
2023-05-07T15:40:03.558Z,37.28
2023-05-07T15:43:31.267Z,37.18
2023-05-07T15:46:58.400Z,37.14
2023-05-07T15:50:25.924Z,37.18
2023-05-07T15:53:54.131Z,37.15
2023-05-07T15:57:20.631Z,37.07
2023-05-07T16:00:47.945Z,37.15
2023-05-07T16:04:15.157Z,37.19
2023-05-07T16:07:44.429Z,37.04
2023-05-07T16:11:12.642Z,37.03
2023-05-07T16:14:40.493Z,36.92
2023-05-07T16:18:07.837Z,36.95
2023-05-07T16:21:35.908Z,37.06
2023-05-07T16:25:05.164Z,37.04
2023-05-07T16:28:32.400Z,37.02
2023-05-07T16:32:00.893Z,37.03
2023-05-07T16:35:27.899Z,37.08
2023-05-07T16:38:54.831Z,37.14
2023-05-07T16:42:21.598Z,36.98
2023-05-07T16:45:48.671Z,37.06
2023-05-07T16:49:15.737Z,37.02
2023-05-07T16:52:45.870Z,37.21
2023-05-07T16:56:13.204Z,37.23
2023-05-07T16:59:40.630Z,37.17
2023-05-07T17:03:07.946Z,37.25
2023-05-07T17:06:35.978Z,37.29
2023-05-07T17:10:04.598Z,37.37
2023-05-07T17:13:31.636Z,37.43
2023-05-07T17:16:59.003Z,37.70
2023-05-07T17:20:27.763Z,37.74
2023-05-07T17:23:55.854Z,37.92
2023-05-07T17:27:23.385Z,37.97
2023-05-07T17:30:51.666Z,38.14
2023-05-07T17:34:18.838Z,38.29
2023-05-07T17:37:52.764Z,38.45
2023-05-07T17:41:23.029Z,38.62
2023-05-07T17:44:50.298Z,38.75
2023-05-07T17:48:17.669Z,38.92
2023-05-07T17:51:54.503Z,38.87
2023-05-07T17:55:25.092Z,39.11
2023-05-07T17:58:58.807Z,39.15
2023-05-07T18:02:27.245Z,39.43
2023-05-07T18:05:55.375Z,39.42
2023-05-07T18:09:24.409Z,39.64
2023-05-07T18:12:52.012Z,39.87
2023-05-07T18:16:20.262Z,40.08
2023-05-07T18:19:48.914Z,40.51
2023-05-07T18:23:20.053Z,40.71
2023-05-07T18:26:48.432Z,41.06
2023-05-07T18:30:19.336Z,41.22
2023-05-07T18:33:46.647Z,41.37
2023-05-07T18:37:14.198Z,41.64
2023-05-07T18:40:44.245Z,41.96
2023-05-07T18:44:11.134Z,42.18
2023-05-07T18:47:38.648Z,42.38
2023-05-07T18:51:08.709Z,42.57
2023-05-07T18:54:35.979Z,42.61
2023-05-07T18:58:04.268Z,43.09
2023-05-07T19:01:34.695Z,43.07
2023-05-07T19:05:14.714Z,43.17
2023-05-07T19:08:41.812Z,43.44
2023-05-07T19:12:10.761Z,43.57
2023-05-07T19:15:38.580Z,43.74
2023-05-07T19:19:07.027Z,43.89
2023-05-07T19:22:34.844Z,44.27
2023-05-07T19:26:03.240Z,44.41
2023-05-07T19:29:30.222Z,44.61
2023-05-07T19:32:57.729Z,44.91
2023-05-07T19:36:25.242Z,45.09
2023-05-07T19:39:55.104Z,45.34
2023-05-07T19:43:23.014Z,45.29
2023-05-07T19:46:54.875Z,45.41
2023-05-07T19:50:22.508Z,45.39
2023-05-07T19:53:49.851Z,45.46
2023-05-07T19:57:18.037Z,45.61
2023-05-07T20:00:45.389Z,45.59
2023-05-07T20:04:12.335Z,45.88
2023-05-07T20:07:40.000Z,45.83
2023-05-07T20:11:10.211Z,45.89
2023-05-07T20:14:39.464Z,45.96
2023-05-07T20:18:10.755Z,46.06
2023-05-07T20:21:44.866Z,46.13
2023-05-07T20:25:15.201Z,46.26
2023-05-07T20:28:41.870Z,46.48
2023-05-07T20:32:09.588Z,46.61
2023-05-07T20:35:37.493Z,46.70
2023-05-07T20:39:04.422Z,46.90
2023-05-07T20:42:31.823Z,47.00
2023-05-07T20:46:03.923Z,47.00
2023-05-07T20:49:30.760Z,47.07
2023-05-07T20:52:57.644Z,47.22
2023-05-07T20:56:24.715Z,47.21
2023-05-07T20:59:52.615Z,47.45
2023-05-07T21:03:19.441Z,47.68
2023-05-07T21:06:48.959Z,47.71
2023-05-07T21:10:15.851Z,47.93
2023-05-07T21:13:42.991Z,48.14
2023-05-07T21:17:10.581Z,48.30
2023-05-07T21:20:38.014Z,48.38
2023-05-07T21:24:05.711Z,48.39
2023-05-07T21:27:41.597Z,48.62
2023-05-07T21:31:09.466Z,48.93
2023-05-07T21:34:36.709Z,48.94
2023-05-07T21:38:04.026Z,49.17
2023-05-07T21:41:31.884Z,49.28
2023-05-07T21:44:59.692Z,49.42
2023-05-07T21:48:27.533Z,49.31
2023-05-07T21:51:55.080Z,49.31
2023-05-07T21:55:22.374Z,49.78
2023-05-07T21:58:49.766Z,49.86
2023-05-07T22:02:17.225Z,49.96
2023-05-07T22:05:45.044Z,50.44
2023-05-07T22:09:11.969Z,50.35
2023-05-07T22:12:39.862Z,50.51
2023-05-07T22:16:07.322Z,50.74
2023-05-07T22:19:33.973Z,50.80
2023-05-07T22:23:01.376Z,51.09
2023-05-07T22:26:29.048Z,51.21
2023-05-07T22:30:00.729Z,51.21
2023-05-07T22:33:27.756Z,51.50
2023-05-07T22:36:55.128Z,51.76
2023-05-07T22:40:22.840Z,51.86
2023-05-07T22:43:50.049Z,52.15
2023-05-07T22:47:17.337Z,52.19
2023-05-07T22:50:44.060Z,52.40
2023-05-07T22:54:11.586Z,52.24
2023-05-07T22:57:38.886Z,52.38
2023-05-07T23:01:12.662Z,52.53
2023-05-07T23:04:45.341Z,52.85
2023-05-07T23:08:12.539Z,52.83
2023-05-07T23:11:40.624Z,52.83
2023-05-07T23:15:09.963Z,52.89
2023-05-07T23:18:39.353Z,53.19
2023-05-07T23:22:06.594Z,52.96
2023-05-07T23:25:33.847Z,53.08
2023-05-07T23:29:00.730Z,53.47
2023-05-07T23:32:28.416Z,53.20
2023-05-07T23:36:03.522Z,53.30
2023-05-07T23:39:34.484Z,53.37
2023-05-07T23:43:02.825Z,53.43
2023-05-07T23:46:29.965Z,53.68
2023-05-07T23:49:58.206Z,53.65
2023-05-07T23:53:26.482Z,53.70
2023-05-07T23:56:53.943Z,54.10
